createdAt,value
2022-08-24T00:00:46.206Z,60.01
2022-08-24T00:05:48.542Z,60.13
2022-08-24T00:10:50.564Z,60.12
2022-08-24T00:15:52.526Z,60.25
2022-08-24T00:20:54.843Z,60.45
2022-08-24T00:25:57.749Z,60.07
2022-08-24T00:31:00.374Z,60.16
2022-08-24T00:36:02.729Z,60.31
2022-08-24T00:41:06.937Z,60.26
2022-08-24T00:46:38.327Z,60.04
2022-08-24T00:51:47.608Z,60.35
2022-08-24T00:56:57.332Z,60.35
2022-08-24T01:02:06.286Z,60.55
2022-08-24T01:07:17.293Z,60.73
2022-08-24T01:12:19.946Z,60.55
2022-08-24T01:17:41.309Z,60.42
2022-08-24T01:22:56.721Z,60.73
2022-08-24T01:28:05.550Z,60.75
2022-08-24T01:33:10.394Z,60.62
2022-08-24T01:38:12.450Z,60.54
2022-08-24T01:43:15.244Z,60.34
2022-08-24T01:48:23.053Z,60.53
2022-08-24T01:53:27.538Z,60.29
2022-08-24T01:58:29.553Z,60.46
2022-08-24T02:03:31.452Z,60.47
2022-08-24T02:08:36.642Z,60.31
2022-08-24T02:13:40.575Z,60.06
2022-08-24T02:18:42.667Z,60.03
2022-08-24T02:23:44.732Z,59.86
2022-08-24T02:28:46.768Z,59.98
2022-08-24T02:33:49.048Z,60.01
2022-08-24T02:38:51.274Z,60.12
2022-08-24T02:43:57.054Z,60.06
2022-08-24T02:49:11.065Z,59.86
2022-08-24T02:54:18.633Z,59.75
2022-08-24T02:59:23.579Z,60.00
2022-08-24T03:04:26.266Z,60.15
2022-08-24T03:09:28.871Z,60.86
2022-08-24T03:14:32.316Z,61.24
2022-08-24T03:19:34.423Z,61.23
2022-08-24T03:24:36.358Z,61.27
2022-08-24T03:29:38.364Z,61.00
2022-08-24T03:34:41.564Z,60.64
2022-08-24T03:39:43.668Z,60.42
2022-08-24T03:44:46.335Z,60.30
2022-08-24T03:49:50.653Z,60.25
2022-08-24T03:54:52.838Z,60.19
2022-08-24T03:59:56.090Z,60.10
2022-08-24T04:04:58.267Z,60.27
2022-08-24T04:10:01.631Z,60.32
2022-08-24T04:15:05.245Z,60.33
2022-08-24T04:20:08.973Z,60.36
2022-08-24T04:25:14.017Z,60.44
2022-08-24T04:30:16.003Z,60.60
2022-08-24T04:35:39.201Z,60.81
2022-08-24T04:40:42.903Z,60.81
2022-08-24T04:45:51.060Z,60.88
2022-08-24T04:50:54.956Z,60.75
2022-08-24T04:55:57.822Z,60.66
2022-08-24T05:01:00.216Z,60.76
2022-08-24T05:06:02.356Z,60.67
2022-08-24T05:11:08.385Z,60.73
2022-08-24T05:16:13.891Z,60.52
2022-08-24T05:21:19.414Z,60.42
2022-08-24T05:26:26.421Z,60.45
2022-08-24T05:31:32.028Z,60.23
2022-08-24T05:36:39.929Z,60.21
2022-08-24T05:41:46.589Z,60.01
2022-08-24T05:46:58.324Z,59.85
2022-08-24T05:52:00.682Z,59.71
2022-08-24T05:57:05.144Z,59.65
2022-08-24T06:02:33.836Z,59.49
2022-08-24T06:07:36.260Z,59.49
2022-08-24T06:12:38.788Z,59.20
2022-08-24T06:17:41.559Z,59.07
2022-08-24T06:22:44.601Z,59.02
2022-08-24T06:27:47.016Z,58.69
2022-08-24T06:32:49.026Z,58.77
2022-08-24T06:38:19.567Z,58.87
2022-08-24T06:43:26.470Z,59.07
2022-08-24T06:48:30.566Z,59.12
2022-08-24T06:53:32.551Z,58.91
2022-08-24T06:58:36.002Z,58.89
2022-08-24T07:03:42.318Z,58.79
2022-08-24T07:09:03.609Z,58.60
2022-08-24T07:14:06.878Z,58.28
2022-08-24T07:19:09.544Z,58.26
2022-08-24T07:24:11.517Z,58.46
2022-08-24T07:29:44.038Z,58.12
2022-08-24T07:34:39.617Z,58.18
2022-08-24T07:39:43.071Z,57.81
2022-08-24T07:44:45.904Z,57.95
2022-08-24T07:49:49.390Z,57.76
2022-08-24T07:54:51.770Z,57.50
2022-08-24T07:59:54.213Z,57.49
2022-08-24T08:04:56.815Z,57.63
2022-08-24T08:10:02.668Z,57.58
2022-08-24T08:15:08.981Z,57.53
2022-08-24T08:20:13.360Z,57.52
2022-08-24T08:25:19.535Z,57.51
2022-08-24T08:30:21.758Z,57.22
2022-08-24T08:35:23.918Z,57.19
2022-08-24T08:41:04.642Z,56.78
2022-08-24T08:46:40.778Z,56.83
2022-08-24T08:51:51.683Z,56.58
2022-08-24T08:57:06.495Z,56.71
2022-08-24T09:02:33.704Z,56.21
2022-08-24T09:07:56.277Z,56.21
2022-08-24T09:13:23.802Z,55.92
2022-08-24T19:20:03.956Z,49.73
2022-08-24T19:25:07.038Z,49.82
2022-08-24T19:30:09.917Z,49.98
2022-08-24T19:35:14.844Z,50.25
2022-08-24T19:40:17.922Z,50.45
2022-08-24T19:45:45.154Z,50.79
2022-08-24T19:50:47.033Z,51.00
2022-08-24T19:55:50.362Z,50.83
2022-08-24T20:01:01.815Z,50.94
2022-08-24T20:06:03.931Z,51.41
2022-08-24T20:11:07.814Z,51.50
2022-08-24T20:16:14.444Z,51.64
2022-08-24T20:21:17.427Z,51.36
2022-08-24T20:26:19.372Z,51.77
2022-08-24T20:31:28.029Z,51.94
2022-08-24T20:36:36.519Z,51.99
2022-08-24T20:41:40.367Z,52.26
2022-08-24T20:46:42.867Z,52.00
2022-08-24T20:51:49.383Z,52.67
2022-08-24T20:56:51.752Z,53.34
2022-08-24T21:01:56.016Z,53.27
2022-08-24T21:06:58.255Z,53.40
2022-08-24T21:12:01.091Z,53.93
2022-08-24T21:17:06.243Z,54.06
2022-08-24T21:22:08.906Z,53.66
2022-08-24T21:27:10.918Z,53.67
2022-08-24T21:32:31.703Z,53.85
2022-08-24T21:37:33.530Z,53.59
2022-08-24T21:42:35.801Z,54.24
2022-08-24T21:47:39.474Z,54.38
2022-08-24T21:52:41.724Z,54.71
2022-08-24T21:57:43.889Z,54.65
2022-08-24T22:02:47.531Z,54.53
2022-08-24T22:07:49.536Z,55.10
2022-08-24T22:12:52.030Z,55.54
2022-08-24T22:17:55.438Z,55.76
2022-08-24T22:22:58.859Z,56.11
2022-08-24T22:28:00.939Z,56.51
2022-08-24T22:33:02.877Z,56.59
2022-08-24T22:38:05.937Z,56.78
2022-08-24T22:43:07.834Z,56.72
2022-08-24T22:48:09.747Z,56.93
2022-08-24T22:53:11.625Z,57.00
2022-08-24T22:58:13.507Z,56.89
2022-08-24T23:03:15.449Z,56.81
2022-08-24T23:08:17.350Z,56.58
2022-08-24T23:13:20.875Z,56.35
2022-08-24T23:18:46.482Z,56.26
2022-08-24T23:23:50.440Z,55.91
2022-08-24T23:28:52.463Z,56.29
2022-08-24T23:33:54.373Z,56.50
2022-08-24T23:38:58.238Z,56.42
2022-08-24T23:44:02.253Z,56.93
2022-08-24T23:49:05.084Z,57.33
2022-08-24T23:54:09.065Z,57.00
2022-08-24T23:59:14.710Z,57.07
